sensor_id;sensor_type;location;lat;lon;timestamp;pressure;altitude;pressure_sealevel;temperature
27715;BMP280;16051;53.024;8.630;2023-02-10T00:02:58;103271.69;;;3.46
27715;BMP280;16051;53.024;8.630;2023-02-10T00:07:01;103271.97;;;3.61
27715;BMP280;16051;53.024;8.630;2023-02-10T00:11:06;103274.69;;;3.61
27715;BMP280;16051;53.024;8.630;2023-02-10T00:15:39;103272.97;;;3.53
27715;BMP280;16051;53.024;8.630;2023-02-10T00:19:41;103279.72;;;3.59
27715;BMP280;16051;53.024;8.630;2023-02-10T00:23:45;103281.59;;;3.55
27715;BMP280;16051;53.024;8.630;2023-02-10T00:27:47;103288.16;;;3.50
27715;BMP280;16051;53.024;8.630;2023-02-10T00:31:49;103284.25;;;3.51
27715;BMP280;16051;53.024;8.630;2023-02-10T00:36:09;103287.50;;;3.37
27715;BMP280;16051;53.024;8.630;2023-02-10T00:40:12;103283.78;;;3.45
27715;BMP280;16051;53.024;8.630;2023-02-10T00:44:15;103283.91;;;3.53
27715;BMP280;16051;53.024;8.630;2023-02-10T00:48:17;103291.75;;;3.54
27715;BMP280;16051;53.024;8.630;2023-02-10T00:52:19;103300.31;;;3.53
27715;BMP280;16051;53.024;8.630;2023-02-10T00:56:22;103295.97;;;3.52
27715;BMP280;16051;53.024;8.630;2023-02-10T01:00:25;103295.34;;;3.39
27715;BMP280;16051;53.024;8.630;2023-02-10T01:04:27;103275.94;;;3.25
27715;BMP280;16051;53.024;8.630;2023-02-10T01:08:30;103304.63;;;3.34
27715;BMP280;16051;53.024;8.630;2023-02-10T01:12:33;103291.81;;;3.19
27715;BMP280;16051;53.024;8.630;2023-02-10T01:16:36;103297.00;;;3.24
27715;BMP280;16051;53.024;8.630;2023-02-10T01:20:46;103297.59;;;3.14
27715;BMP280;16051;53.024;8.630;2023-02-10T01:24:48;103300.25;;;3.11
27715;BMP280;16051;53.024;8.630;2023-02-10T01:28:52;103296.13;;;3.01
27715;BMP280;16051;53.024;8.630;2023-02-10T01:32:55;103295.13;;;3.09
27715;BMP280;16051;53.024;8.630;2023-02-10T01:36:57;103299.88;;;3.12
27715;BMP280;16051;53.024;8.630;2023-02-10T01:40:59;103303.75;;;3.11
27715;BMP280;16051;53.024;8.630;2023-02-10T01:45:19;103305.72;;;3.11
27715;BMP280;16051;53.024;8.630;2023-02-10T01:49:26;103307.19;;;3.08
27715;BMP280;16051;53.024;8.630;2023-02-10T01:53:30;103310.22;;;3.03
27715;BMP280;16051;53.024;8.630;2023-02-10T01:57:34;103301.94;;;3.00
27715;BMP280;16051;53.024;8.630;2023-02-10T02:01:38;103316.03;;;3.02
27715;BMP280;16051;53.024;8.630;2023-02-10T02:05:42;103310.06;;;2.96
27715;BMP280;16051;53.024;8.630;2023-02-10T02:09:46;103309.91;;;2.89
27715;BMP280;16051;53.024;8.630;2023-02-10T02:14:09;103300.63;;;2.74
27715;BMP280;16051;53.024;8.630;2023-02-10T02:18:21;103303.94;;;2.68
27715;BMP280;16051;53.024;8.630;2023-02-10T02:22:52;103301.78;;;2.58
27715;BMP280;16051;53.024;8.630;2023-02-10T02:27:41;103296.06;;;2.47
27715;BMP280;16051;53.024;8.630;2023-02-10T02:32:05;103299.66;;;2.51
27715;BMP280;16051;53.024;8.630;2023-02-10T02:36:17;103288.41;;;2.37
27715;BMP280;16051;53.024;8.630;2023-02-10T02:40:25;103296.59;;;2.37
27715;BMP280;16051;53.024;8.630;2023-02-10T02:44:33;103309.53;;;2.24
27715;BMP280;16051;53.024;8.630;2023-02-10T02:48:57;103304.25;;;2.16
27715;BMP280;16051;53.024;8.630;2023-02-10T02:53:23;103304.44;;;2.23
27715;BMP280;16051;53.024;8.630;2023-02-10T02:57:42;103304.00;;;2.05
27715;BMP280;16051;53.024;8.630;2023-02-10T03:01:51;103300.75;;;2.15
27715;BMP280;16051;53.024;8.630;2023-02-10T03:05:58;103301.28;;;2.05
27715;BMP280;16051;53.024;8.630;2023-02-10T03:10:01;103293.19;;;2.09
27715;BMP280;16051;53.024;8.630;2023-02-10T03:14:03;103284.44;;;2.03
27715;BMP280;16051;53.024;8.630;2023-02-10T03:18:05;103287.47;;;1.98
27715;BMP280;16051;53.024;8.630;2023-02-10T03:22:09;103283.22;;;2.01
27715;BMP280;16051;53.024;8.630;2023-02-10T03:26:12;103282.00;;;1.98
27715;BMP280;16051;53.024;8.630;2023-02-10T03:30:14;103287.09;;;1.99
27715;BMP280;16051;53.024;8.630;2023-02-10T03:34:16;103297.03;;;2.08
27715;BMP280;16051;53.024;8.630;2023-02-10T03:38:21;103289.38;;;1.97
27715;BMP280;16051;53.024;8.630;2023-02-10T03:42:23;103293.50;;;2.07
27715;BMP280;16051;53.024;8.630;2023-02-10T03:46:25;103295.72;;;2.17
27715;BMP280;16051;53.024;8.630;2023-02-10T03:50:29;103296.25;;;2.07
27715;BMP280;16051;53.024;8.630;2023-02-10T03:54:32;103282.78;;;1.98
27715;BMP280;16051;53.024;8.630;2023-02-10T03:58:34;103292.44;;;1.96
27715;BMP280;16051;53.024;8.630;2023-02-10T04:02:36;103306.44;;;1.94
27715;BMP280;16051;53.024;8.630;2023-02-10T04:06:39;103304.84;;;1.93
27715;BMP280;16051;53.024;8.630;2023-02-10T04:10:42;103295.19;;;1.96
27715;BMP280;16051;53.024;8.630;2023-02-10T04:15:12;103301.53;;;2.00
27715;BMP280;16051;53.024;8.630;2023-02-10T04:19:14;103299.69;;;2.04
27715;BMP280;16051;53.024;8.630;2023-02-10T04:23:16;103308.75;;;2.08
27715;BMP280;16051;53.024;8.630;2023-02-10T04:27:20;103309.00;;;2.03
27715;BMP280;16051;53.024;8.630;2023-02-10T04:31:22;103314.91;;;2.05
27715;BMP280;16051;53.024;8.630;2023-02-10T04:35:24;103326.59;;;2.06
27715;BMP280;16051;53.024;8.630;2023-02-10T04:39:28;103316.13;;;2.08
27715;BMP280;16051;53.024;8.630;2023-02-10T04:43:33;103326.78;;;2.13
27715;BMP280;16051;53.024;8.630;2023-02-10T04:47:35;103341.66;;;2.15
27715;BMP280;16051;53.024;8.630;2023-02-10T04:51:39;103341.91;;;2.10
27715;BMP280;16051;53.024;8.630;2023-02-10T04:55:41;103337.34;;;2.14
27715;BMP280;16051;53.024;8.630;2023-02-10T04:59:45;103328.16;;;2.07
27715;BMP280;16051;53.024;8.630;2023-02-10T05:03:47;103334.34;;;2.04
27715;BMP280;16051;53.024;8.630;2023-02-10T05:07:49;103337.75;;;2.01
27715;BMP280;16051;53.024;8.630;2023-02-10T05:11:51;103331.41;;;1.96
27715;BMP280;16051;53.024;8.630;2023-02-10T05:15:55;103326.16;;;1.88
27715;BMP280;16051;53.024;8.630;2023-02-10T05:19:57;103332.91;;;1.94
27715;BMP280;16051;53.024;8.630;2023-02-10T05:24:16;103341.19;;;1.97
27715;BMP280;16051;53.024;8.630;2023-02-10T05:28:18;103338.00;;;1.80
27715;BMP280;16051;53.024;8.630;2023-02-10T05:32:22;103344.25;;;1.80
27715;BMP280;16051;53.024;8.630;2023-02-10T05:36:25;103340.44;;;1.69
27715;BMP280;16051;53.024;8.630;2023-02-10T05:40:27;103338.69;;;1.77
27715;BMP280;16051;53.024;8.630;2023-02-10T05:44:30;103343.34;;;1.76
27715;BMP280;16051;53.024;8.630;2023-02-10T05:48:45;103341.31;;;1.73
27715;BMP280;16051;53.024;8.630;2023-02-10T05:52:48;103345.72;;;1.78
27715;BMP280;16051;53.024;8.630;2023-02-10T05:56:56;103348.44;;;1.78
27715;BMP280;16051;53.024;8.630;2023-02-10T06:00:58;103355.81;;;1.77
27715;BMP280;16051;53.024;8.630;2023-02-10T06:05:02;103364.31;;;1.88
27715;BMP280;16051;53.024;8.630;2023-02-10T06:09:04;103368.31;;;1.78
27715;BMP280;16051;53.024;8.630;2023-02-10T06:13:08;103377.53;;;1.74
27715;BMP280;16051;53.024;8.630;2023-02-10T06:17:10;103378.59;;;1.69
27715;BMP280;16051;53.024;8.630;2023-02-10T06:21:13;103394.03;;;1.65
27715;BMP280;16051;53.024;8.630;2023-02-10T06:25:16;103384.63;;;1.63
27715;BMP280;16051;53.024;8.630;2023-02-10T06:29:18;103392.22;;;1.69
27715;BMP280;16051;53.024;8.630;2023-02-10T06:33:20;103393.75;;;1.55
27715;BMP280;16051;53.024;8.630;2023-02-10T06:37:24;103401.72;;;1.47
27715;BMP280;16051;53.024;8.630;2023-02-10T06:41:33;103395.59;;;1.38
27715;BMP280;16051;53.024;8.630;2023-02-10T06:45:35;103393.31;;;1.40
27715;BMP280;16051;53.024;8.630;2023-02-10T06:49:40;103388.78;;;1.32
27715;BMP280;16051;53.024;8.630;2023-02-10T06:53:44;103389.81;;;1.28
27715;BMP280;16051;53.024;8.630;2023-02-10T06:57:46;103384.72;;;1.26
27715;BMP280;16051;53.024;8.630;2023-02-10T07:01:48;103406.47;;;1.38
27715;BMP280;16051;53.024;8.630;2023-02-10T07:05:57;103404.00;;;1.33
27715;BMP280;16051;53.024;8.630;2023-02-10T07:10:00;103397.81;;;1.48
27715;BMP280;16051;53.024;8.630;2023-02-10T07:14:02;103392.84;;;1.38
27715;BMP280;16051;53.024;8.630;2023-02-10T07:18:05;103408.50;;;1.41
27715;BMP280;16051;53.024;8.630;2023-02-10T07:22:07;103407.16;;;1.47
27715;BMP280;16051;53.024;8.630;2023-02-10T07:26:10;103417.38;;;1.51
27715;BMP280;16051;53.024;8.630;2023-02-10T07:30:13;103415.75;;;1.49
27715;BMP280;16051;53.024;8.630;2023-02-10T07:34:15;103415.75;;;1.62
27715;BMP280;16051;53.024;8.630;2023-02-10T07:38:19;103417.09;;;1.56
27715;BMP280;16051;53.024;8.630;2023-02-10T07:42:23;103426.44;;;1.55
27715;BMP280;16051;53.024;8.630;2023-02-10T07:46:25;103432.78;;;1.59
27715;BMP280;16051;53.024;8.630;2023-02-10T07:50:27;103421.94;;;1.74
27715;BMP280;16051;53.024;8.630;2023-02-10T07:54:29;103427.16;;;1.79
27715;BMP280;16051;53.024;8.630;2023-02-10T07:58:33;103434.03;;;1.89
27715;BMP280;16051;53.024;8.630;2023-02-10T08:02:35;103434.31;;;1.84
27715;BMP280;16051;53.024;8.630;2023-02-10T08:06:46;103430.97;;;1.90
27715;BMP280;16051;53.024;8.630;2023-02-10T08:10:49;103433.22;;;2.01
27715;BMP280;16051;53.024;8.630;2023-02-10T08:14:52;103417.41;;;2.06
27715;BMP280;16051;53.024;8.630;2023-02-10T08:18:54;103426.53;;;2.14
27715;BMP280;16051;53.024;8.630;2023-02-10T08:22:57;103425.50;;;2.18
27715;BMP280;16051;53.024;8.630;2023-02-10T08:27:21;103427.13;;;2.35
27715;BMP280;16051;53.024;8.630;2023-02-10T08:31:25;103435.75;;;2.37
27715;BMP280;16051;53.024;8.630;2023-02-10T08:35:27;103432.41;;;2.43
27715;BMP280;16051;53.024;8.630;2023-02-10T08:39:39;103430.41;;;2.56
27715;BMP280;16051;53.024;8.630;2023-02-10T08:43:42;103436.06;;;2.63
27715;BMP280;16051;53.024;8.630;2023-02-10T08:47:46;103435.53;;;2.73
27715;BMP280;16051;53.024;8.630;2023-02-10T08:51:48;103426.00;;;2.83
27715;BMP280;16051;53.024;8.630;2023-02-10T08:55:57;103428.00;;;3.02
27715;BMP280;16051;53.024;8.630;2023-02-10T09:00:07;103422.16;;;3.19
27715;BMP280;16051;53.024;8.630;2023-02-10T09:04:10;103426.94;;;3.22
27715;BMP280;16051;53.024;8.630;2023-02-10T09:08:12;103422.06;;;3.31
27715;BMP280;16051;53.024;8.630;2023-02-10T09:12:15;103426.88;;;3.37
27715;BMP280;16051;53.024;8.630;2023-02-10T09:16:17;103420.38;;;3.61
27715;BMP280;16051;53.024;8.630;2023-02-10T09:20:20;103430.44;;;3.76
27715;BMP280;16051;53.024;8.630;2023-02-10T09:24:23;103422.47;;;3.87
27715;BMP280;16051;53.024;8.630;2023-02-10T09:28:26;103431.03;;;4.05
27715;BMP280;16051;53.024;8.630;2023-02-10T09:32:33;103442.06;;;4.31
27715;BMP280;16051;53.024;8.630;2023-02-10T09:36:36;103440.81;;;4.47
27715;BMP280;16051;53.024;8.630;2023-02-10T09:40:52;103440.91;;;4.74
27715;BMP280;16051;53.024;8.630;2023-02-10T09:45:09;103448.28;;;4.96
27715;BMP280;16051;53.024;8.630;2023-02-10T09:49:43;103449.66;;;5.35
27715;BMP280;16051;53.024;8.630;2023-02-10T09:53:49;103456.66;;;5.59
27715;BMP280;16051;53.024;8.630;2023-02-10T09:57:58;103457.22;;;5.72
27715;BMP280;16051;53.024;8.630;2023-02-10T10:02:13;103465.31;;;5.91
27715;BMP280;16051;53.024;8.630;2023-02-10T10:06:27;103471.59;;;6.21
27715;BMP280;16051;53.024;8.630;2023-02-10T10:10:36;103459.81;;;6.58
27715;BMP280;16051;53.024;8.630;2023-02-10T10:14:44;103472.28;;;6.96
27715;BMP280;16051;53.024;8.630;2023-02-10T10:19:02;103479.91;;;7.16
27715;BMP280;16051;53.024;8.630;2023-02-10T10:23:30;103482.88;;;7.48
27715;BMP280;16051;53.024;8.630;2023-02-10T10:27:50;103486.03;;;7.54
27715;BMP280;16051;53.024;8.630;2023-02-10T10:32:04;103479.50;;;7.76
27715;BMP280;16051;53.024;8.630;2023-02-10T10:36:23;103472.84;;;7.80
27715;BMP280;16051;53.024;8.630;2023-02-10T10:40:32;103476.41;;;7.84
27715;BMP280;16051;53.024;8.630;2023-02-10T10:44:38;103465.81;;;7.97
27715;BMP280;16051;53.024;8.630;2023-02-10T10:48:42;103477.13;;;7.81
27715;BMP280;16051;53.024;8.630;2023-02-10T10:52:46;103465.84;;;8.08
27715;BMP280;16051;53.024;8.630;2023-02-10T10:56:58;103468.69;;;8.32
27715;BMP280;16051;53.024;8.630;2023-02-10T11:01:08;103466.75;;;8.47
27715;BMP280;16051;53.024;8.630;2023-02-10T11:05:13;103460.09;;;8.55
27715;BMP280;16051;53.024;8.630;2023-02-10T11:09:27;103464.81;;;8.62
27715;BMP280;16051;53.024;8.630;2023-02-10T11:13:31;103455.38;;;8.66
27715;BMP280;16051;53.024;8.630;2023-02-10T11:17:40;103447.50;;;8.68
27715;BMP280;16051;53.024;8.630;2023-02-10T11:21:46;103440.03;;;8.62
27715;BMP280;16051;53.024;8.630;2023-02-10T11:25:59;103442.38;;;8.81
27715;BMP280;16051;53.024;8.630;2023-02-10T11:30:26;103438.47;;;8.78
27715;BMP280;16051;53.024;8.630;2023-02-10T11:34:37;103437.66;;;8.85
27715;BMP280;16051;53.024;8.630;2023-02-10T11:38:40;103424.69;;;8.71
27715;BMP280;16051;53.024;8.630;2023-02-10T11:42:46;103418.38;;;8.35
27715;BMP280;16051;53.024;8.630;2023-02-10T11:46:55;103409.31;;;8.42
27715;BMP280;16051;53.024;8.630;2023-02-10T11:51:17;103405.34;;;8.43
27715;BMP280;16051;53.024;8.630;2023-02-10T11:55:25;103394.34;;;8.32
27715;BMP280;16051;53.024;8.630;2023-02-10T11:59:41;103381.72;;;8.28
27715;BMP280;16051;53.024;8.630;2023-02-10T12:04:02;103380.94;;;8.17
27715;BMP280;16051;53.024;8.630;2023-02-10T12:08:21;103373.41;;;8.03
27715;BMP280;16051;53.024;8.630;2023-02-10T12:12:36;103378.88;;;7.89
27715;BMP280;16051;53.024;8.630;2023-02-10T12:16:48;103385.09;;;7.61
27715;BMP280;16051;53.024;8.630;2023-02-10T12:21:18;103383.84;;;7.48
27715;BMP280;16051;53.024;8.630;2023-02-10T12:25:34;103368.88;;;7.38
27715;BMP280;16051;53.024;8.630;2023-02-10T12:29:54;103370.09;;;7.48
27715;BMP280;16051;53.024;8.630;2023-02-10T12:34:26;103369.69;;;7.46
27715;BMP280;16051;53.024;8.630;2023-02-10T12:38:53;103359.91;;;7.49
27715;BMP280;16051;53.024;8.630;2023-02-10T12:43:09;103355.59;;;7.58
27715;BMP280;16051;53.024;8.630;2023-02-10T12:47:39;103347.69;;;7.50
27715;BMP280;16051;53.024;8.630;2023-02-10T12:51:59;103344.97;;;7.57
27715;BMP280;16051;53.024;8.630;2023-02-10T12:56:13;103326.50;;;7.57
27715;BMP280;16051;53.024;8.630;2023-02-10T13:00:24;103335.56;;;7.68
27715;BMP280;16051;53.024;8.630;2023-02-10T13:04:48;103326.97;;;7.73
27715;BMP280;16051;53.024;8.630;2023-02-10T13:08:57;103325.78;;;7.85
27715;BMP280;16051;53.024;8.630;2023-02-10T13:13:12;103319.53;;;7.91
27715;BMP280;16051;53.024;8.630;2023-02-10T13:17:17;103309.31;;;7.99
27715;BMP280;16051;53.024;8.630;2023-02-10T13:21:34;103291.59;;;8.07
27715;BMP280;16051;53.024;8.630;2023-02-10T13:25:56;103279.41;;;8.01
27715;BMP280;16051;53.024;8.630;2023-02-10T13:30:25;103282.97;;;8.02
27715;BMP280;16051;53.024;8.630;2023-02-10T13:34:32;103278.63;;;8.04
27715;BMP280;16051;53.024;8.630;2023-02-10T13:38:36;103280.59;;;8.14
27715;BMP280;16051;53.024;8.630;2023-02-10T13:43:23;103274.69;;;8.19
27715;BMP280;16051;53.024;8.630;2023-02-10T13:47:33;103276.28;;;8.49
27715;BMP280;16051;53.024;8.630;2023-02-10T13:51:38;103276.63;;;8.68
27715;BMP280;16051;53.024;8.630;2023-02-10T13:55:43;103278.22;;;8.62
27715;BMP280;16051;53.024;8.630;2023-02-10T14:00:17;103271.09;;;8.72
27715;BMP280;16051;53.024;8.630;2023-02-10T14:04:39;103268.72;;;8.84
27715;BMP280;16051;53.024;8.630;2023-02-10T14:08:44;103259.97;;;9.14
27715;BMP280;16051;53.024;8.630;2023-02-10T14:12:54;103277.25;;;9.25
27715;BMP280;16051;53.024;8.630;2023-02-10T14:17:05;103266.53;;;9.38
27715;BMP280;16051;53.024;8.630;2023-02-10T14:21:12;103258.56;;;9.54
27715;BMP280;16051;53.024;8.630;2023-02-10T14:25:24;103262.16;;;9.44
27715;BMP280;16051;53.024;8.630;2023-02-10T14:29:44;103251.91;;;9.45
27715;BMP280;16051;53.024;8.630;2023-02-10T14:33:56;103247.63;;;9.36
27715;BMP280;16051;53.024;8.630;2023-02-10T14:37:59;103242.84;;;9.40
27715;BMP280;16051;53.024;8.630;2023-02-10T14:42:05;103243.47;;;9.00
27715;BMP280;16051;53.024;8.630;2023-02-10T14:46:18;103235.53;;;9.13
27715;BMP280;16051;53.024;8.630;2023-02-10T14:50:36;103242.69;;;9.00
27715;BMP280;16051;53.024;8.630;2023-02-10T14:54:39;103230.53;;;8.83
27715;BMP280;16051;53.024;8.630;2023-02-10T14:58:45;103243.53;;;8.82
27715;BMP280;16051;53.024;8.630;2023-02-10T15:02:53;103228.19;;;8.81
27715;BMP280;16051;53.024;8.630;2023-02-10T15:06:58;103231.31;;;8.83
27715;BMP280;16051;53.024;8.630;2023-02-10T15:11:04;103226.59;;;8.80
27715;BMP280;16051;53.024;8.630;2023-02-10T15:15:24;103223.09;;;8.73
27715;BMP280;16051;53.024;8.630;2023-02-10T15:19:28;103221.13;;;8.70
27715;BMP280;16051;53.024;8.630;2023-02-10T15:23:31;103219.22;;;8.56
27715;BMP280;16051;53.024;8.630;2023-02-10T15:27:40;103193.25;;;8.39
27715;BMP280;16051;53.024;8.630;2023-02-10T15:31:53;103196.00;;;8.25
27715;BMP280;16051;53.024;8.630;2023-02-10T15:36:14;103197.22;;;8.14
27715;BMP280;16051;53.024;8.630;2023-02-10T15:40:28;103200.75;;;7.89
27715;BMP280;16051;53.024;8.630;2023-02-10T15:44:44;103196.47;;;7.92
27715;BMP280;16051;53.024;8.630;2023-02-10T15:49:12;103195.66;;;7.74
27715;BMP280;16051;53.024;8.630;2023-02-10T15:53:27;103180.31;;;7.59
27715;BMP280;16051;53.024;8.630;2023-02-10T15:57:29;103182.63;;;7.39
27715;BMP280;16051;53.024;8.630;2023-02-10T16:01:32;103180.28;;;7.34
27715;BMP280;16051;53.024;8.630;2023-02-10T16:05:37;103189.28;;;7.24
27715;BMP280;16051;53.024;8.630;2023-02-10T16:09:40;103179.47;;;7.12
27715;BMP280;16051;53.024;8.630;2023-02-10T16:13:42;103173.56;;;7.21
27715;BMP280;16051;53.024;8.630;2023-02-10T16:17:48;103181.03;;;7.17
27715;BMP280;16051;53.024;8.630;2023-02-10T16:21:52;103184.53;;;7.07
27715;BMP280;16051;53.024;8.630;2023-02-10T16:25:56;103183.31;;;6.93
27715;BMP280;16051;53.024;8.630;2023-02-10T16:30:00;103178.50;;;6.73
27715;BMP280;16051;53.024;8.630;2023-02-10T16:34:02;103173.78;;;6.66
27715;BMP280;16051;53.024;8.630;2023-02-10T16:38:05;103175.34;;;6.67
27715;BMP280;16051;53.024;8.630;2023-02-10T16:42:07;103171.78;;;6.60
27715;BMP280;16051;53.024;8.630;2023-02-10T16:46:17;103172.19;;;6.58
27715;BMP280;16051;53.024;8.630;2023-02-10T16:50:25;103175.63;;;6.44
27715;BMP280;16051;53.024;8.630;2023-02-10T16:54:31;103169.75;;;6.46
27715;BMP280;16051;53.024;8.630;2023-02-10T16:58:33;103174.34;;;6.24
27715;BMP280;16051;53.024;8.630;2023-02-10T17:02:35;103168.47;;;6.29
27715;BMP280;16051;53.024;8.630;2023-02-10T17:06:44;103162.22;;;6.29
27715;BMP280;16051;53.024;8.630;2023-02-10T17:11:05;103176.63;;;6.19
27715;BMP280;16051;53.024;8.630;2023-02-10T17:15:09;103175.53;;;6.27
27715;BMP280;16051;53.024;8.630;2023-02-10T17:19:14;103184.50;;;6.20
27715;BMP280;16051;53.024;8.630;2023-02-10T17:23:16;103174.69;;;6.19
27715;BMP280;16051;53.024;8.630;2023-02-10T17:27:20;103171.16;;;6.22
27715;BMP280;16051;53.024;8.630;2023-02-10T17:31:24;103168.00;;;6.13
27715;BMP280;16051;53.024;8.630;2023-02-10T17:35:26;103170.78;;;6.24
27715;BMP280;16051;53.024;8.630;2023-02-10T17:39:28;103155.09;;;6.17
27715;BMP280;16051;53.024;8.630;2023-02-10T17:43:41;103165.66;;;6.19
27715;BMP280;16051;53.024;8.630;2023-02-10T17:47:46;103159.75;;;6.13
27715;BMP280;16051;53.024;8.630;2023-02-10T17:51:49;103169.16;;;6.12
27715;BMP280;16051;53.024;8.630;2023-02-10T17:55:51;103171.09;;;6.12
27715;BMP280;16051;53.024;8.630;2023-02-10T17:59:54;103182.53;;;6.17
27715;BMP280;16051;53.024;8.630;2023-02-10T18:03:57;103162.88;;;6.12
27715;BMP280;16051;53.024;8.630;2023-02-10T18:07:59;103171.44;;;6.03
27715;BMP280;16051;53.024;8.630;2023-02-10T18:12:04;103171.06;;;6.05
27715;BMP280;16051;53.024;8.630;2023-02-10T18:16:10;103171.44;;;6.00
27715;BMP280;16051;53.024;8.630;2023-02-10T18:20:13;103157.25;;;5.94
27715;BMP280;16051;53.024;8.630;2023-02-10T18:24:15;103147.75;;;5.84
27715;BMP280;16051;53.024;8.630;2023-02-10T18:28:17;103145.34;;;5.79
27715;BMP280;16051;53.024;8.630;2023-02-10T18:32:20;103141.16;;;5.89
27715;BMP280;16051;53.024;8.630;2023-02-10T18:36:26;103142.63;;;5.83
27715;BMP280;16051;53.024;8.630;2023-02-10T18:40:28;103160.69;;;5.84
27715;BMP280;16051;53.024;8.630;2023-02-10T18:44:30;103152.78;;;5.79
27715;BMP280;16051;53.024;8.630;2023-02-10T18:48:34;103143.50;;;5.87
27715;BMP280;16051;53.024;8.630;2023-02-10T18:52:37;103142.63;;;5.83
27715;BMP280;16051;53.024;8.630;2023-02-10T18:56:40;103137.84;;;5.69
27715;BMP280;16051;53.024;8.630;2023-02-10T19:00:42;103135.53;;;5.71
27715;BMP280;16051;53.024;8.630;2023-02-10T19:05:02;103142.97;;;5.71
27715;BMP280;16051;53.024;8.630;2023-02-10T19:09:04;103124.88;;;5.66
27715;BMP280;16051;53.024;8.630;2023-02-10T19:13:06;103122.59;;;5.75
27715;BMP280;16051;53.024;8.630;2023-02-10T19:17:30;103130.06;;;5.75
27715;BMP280;16051;53.024;8.630;2023-02-10T19:21:34;103122.56;;;5.72
27715;BMP280;16051;53.024;8.630;2023-02-10T19:25:36;103120.63;;;5.72
27715;BMP280;16051;53.024;8.630;2023-02-10T19:29:38;103113.94;;;5.70
27715;BMP280;16051;53.024;8.630;2023-02-10T19:33:41;103134.78;;;5.78
27715;BMP280;16051;53.024;8.630;2023-02-10T19:37:50;103138.31;;;5.78
27715;BMP280;16051;53.024;8.630;2023-02-10T19:41:53;103132.84;;;5.82
27715;BMP280;16051;53.024;8.630;2023-02-10T19:45:55;103132.56;;;5.94
27715;BMP280;16051;53.024;8.630;2023-02-10T19:50:00;103133.34;;;5.94
27715;BMP280;16051;53.024;8.630;2023-02-10T19:54:04;103129.81;;;5.94
27715;BMP280;16051;53.024;8.630;2023-02-10T19:58:07;103107.91;;;5.98
27715;BMP280;16051;53.024;8.630;2023-02-10T20:02:17;103100.88;;;6.00
27715;BMP280;16051;53.024;8.630;2023-02-10T20:06:23;103100.50;;;6.05
27715;BMP280;16051;53.024;8.630;2023-02-10T20:10:28;103074.56;;;5.92
27715;BMP280;16051;53.024;8.630;2023-02-10T20:15:01;103083.63;;;6.00
27715;BMP280;16051;53.024;8.630;2023-02-10T20:19:04;103071.78;;;5.88
27715;BMP280;16051;53.024;8.630;2023-02-10T20:23:06;103080.16;;;6.10
27715;BMP280;16051;53.024;8.630;2023-02-10T20:27:12;103082.50;;;6.11
27715;BMP280;16051;53.024;8.630;2023-02-10T20:31:14;103070.75;;;6.11
27715;BMP280;16051;53.024;8.630;2023-02-10T20:35:18;103066.03;;;6.11
27715;BMP280;16051;53.024;8.630;2023-02-10T20:39:20;103069.53;;;6.08
27715;BMP280;16051;53.024;8.630;2023-02-10T20:43:25;103075.06;;;6.15
27715;BMP280;16051;53.024;8.630;2023-02-10T20:47:28;103097.41;;;6.14
27715;BMP280;16051;53.024;8.630;2023-02-10T20:51:40;103095.84;;;6.13
27715;BMP280;16051;53.024;8.630;2023-02-10T20:55:50;103076.69;;;6.23
27715;BMP280;16051;53.024;8.630;2023-02-10T20:59:54;103073.94;;;6.27
27715;BMP280;16051;53.024;8.630;2023-02-10T21:03:57;103081.81;;;6.32
27715;BMP280;16051;53.024;8.630;2023-02-10T21:08:06;103078.25;;;6.24
27715;BMP280;16051;53.024;8.630;2023-02-10T21:12:08;103093.56;;;6.25
27715;BMP280;16051;53.024;8.630;2023-02-10T21:16:16;103087.28;;;6.25
27715;BMP280;16051;53.024;8.630;2023-02-10T21:20:19;103082.59;;;6.29
27715;BMP280;16051;53.024;8.630;2023-02-10T21:24:21;103075.53;;;6.31
27715;BMP280;16051;53.024;8.630;2023-02-10T21:28:24;103082.25;;;6.44
27715;BMP280;16051;53.024;8.630;2023-02-10T21:32:31;103080.69;;;6.40
27715;BMP280;16051;53.024;8.630;2023-02-10T21:36:35;103077.94;;;6.36
27715;BMP280;16051;53.024;8.630;2023-02-10T21:40:38;103085.34;;;6.29
27715;BMP280;16051;53.024;8.630;2023-02-10T21:44:40;103083.03;;;6.41
27715;BMP280;16051;53.024;8.630;2023-02-10T21:48:44;103085.00;;;6.41
27715;BMP280;16051;53.024;8.630;2023-02-10T21:53:01;103083.84;;;6.46
27715;BMP280;16051;53.024;8.630;2023-02-10T21:57:04;103097.97;;;6.48
27715;BMP280;16051;53.024;8.630;2023-02-10T22:01:12;103094.47;;;6.51
27715;BMP280;16051;53.024;8.630;2023-02-10T22:05:16;103077.59;;;6.59
27715;BMP280;16051;53.024;8.630;2023-02-10T22:09:18;103076.38;;;6.46
27715;BMP280;16051;53.024;8.630;2023-02-10T22:13:28;103055.59;;;6.49
27715;BMP280;16051;53.024;8.630;2023-02-10T22:17:30;103054.47;;;6.57
27715;BMP280;16051;53.024;8.630;2023-02-10T22:21:34;103062.69;;;6.57
27715;BMP280;16051;53.024;8.630;2023-02-10T22:25:36;103054.06;;;6.55
27715;BMP280;16051;53.024;8.630;2023-02-10T22:29:38;103062.69;;;6.57
27715;BMP280;16051;53.024;8.630;2023-02-10T22:33:41;103048.59;;;6.65
27715;BMP280;16051;53.024;8.630;2023-02-10T22:38:06;103058.38;;;6.59
27715;BMP280;16051;53.024;8.630;2023-02-10T22:42:08;103056.84;;;6.58
27715;BMP280;16051;53.024;8.630;2023-02-10T22:46:12;103050.13;;;6.56
27715;BMP280;16051;53.024;8.630;2023-02-10T22:50:14;103028.56;;;6.54
27715;BMP280;16051;53.024;8.630;2023-02-10T22:54:18;103023.44;;;6.46
27715;BMP280;16051;53.024;8.630;2023-02-10T22:58:20;103029.72;;;6.53
27715;BMP280;16051;53.024;8.630;2023-02-10T23:02:28;103029.72;;;6.50
27715;BMP280;16051;53.024;8.630;2023-02-10T23:06:31;103021.88;;;6.55
27715;BMP280;16051;53.024;8.630;2023-02-10T23:10:34;103021.06;;;6.48
27715;BMP280;16051;53.024;8.630;2023-02-10T23:14:36;103035.59;;;6.52
27715;BMP280;16051;53.024;8.630;2023-02-10T23:18:38;103025.81;;;6.51
27715;BMP280;16051;53.024;8.630;2023-02-10T23:22:41;103014.84;;;6.58
27715;BMP280;16051;53.024;8.630;2023-02-10T23:26:45;103012.09;;;6.58
27715;BMP280;16051;53.024;8.630;2023-02-10T23:31:12;103009.72;;;6.56
27715;BMP280;16051;53.024;8.630;2023-02-10T23:35:15;103001.50;;;6.56
27715;BMP280;16051;53.024;8.630;2023-02-10T23:39:17;103034.06;;;6.58
27715;BMP280;16051;53.024;8.630;2023-02-10T23:43:21;103025.84;;;6.65
27715;BMP280;16051;53.024;8.630;2023-02-10T23:47:24;103021.50;;;6.57